Time;durP1;ratioP1;P1;durP2;ratioP2;P2;SDS_P1;SDS_P2;PMS_P1;PMS_P2;Temp;Humidity;BMP_temperature;BMP_pressure;BME280_temperature;BME280_humidity;BME280_pressure;Samples;Min_cycle;Max_cycle;Signal;HPM_P1;HPM_P2
2022/07/26 00:01:23;;;;;;;3.75;1.35;;;19.40;99.90;;;;;;4976597;28;20084;-82
2022/07/26 00:03:49;;;;;;;5.32;1.60;;;19.40;99.90;;;;;;4983491;28;20058;-81
2022/07/26 00:06:16;;;;;;;5.13;1.45;;;19.40;99.90;;;;;;4978891;28;20047;-81
2022/07/26 00:08:42;;;;;;;5.70;1.70;;;19.40;99.90;;;;;;4960587;28;20085;-81
2022/07/26 00:11:08;;;;;;;4.15;1.60;;;19.30;99.90;;;;;;4982612;28;20164;-81
2022/07/26 00:13:34;;;;;;;6.78;1.80;;;19.40;99.90;;;;;;4994464;28;20046;-82
2022/07/26 00:16:00;;;;;;;4.55;1.40;;;19.30;99.90;;;;;;4977044;28;20045;-81
2022/07/26 00:18:26;;;;;;;6.00;1.75;;;19.40;99.90;;;;;;4979378;28;20062;-81
2022/07/26 00:20:52;;;;;;;3.85;1.42;;;19.30;99.90;;;;;;4969224;28;20058;-81
2022/07/26 00:23:18;;;;;;;3.80;1.58;;;19.30;99.90;;;;;;4978712;28;20049;-80
2022/07/26 00:25:45;;;;;;;6.72;1.60;;;19.20;99.90;;;;;;4964600;28;20517;-81
2022/07/26 00:28:11;;;;;;;3.92;1.38;;;19.20;99.90;;;;;;4975543;28;20408;-81
2022/07/26 00:30:37;;;;;;;4.35;1.52;;;19.20;99.90;;;;;;4976205;28;20554;-80
2022/07/26 00:33:04;;;;;;;6.72;1.80;;;19.20;99.90;;;;;;4993602;28;20050;-80
2022/07/26 00:35:29;;;;;;;4.63;1.40;;;19.20;99.90;;;;;;4996152;28;20478;-81
2022/07/26 00:37:55;;;;;;;5.97;1.88;;;19.20;99.90;;;;;;4978735;28;20126;-80
2022/07/26 00:40:21;;;;;;;5.15;1.75;;;19.10;99.90;;;;;;4966425;28;20057;-80
2022/07/26 00:42:47;;;;;;;3.00;1.30;;;19.10;99.90;;;;;;4981820;28;20037;-82
2022/07/26 00:45:13;;;;;;;3.33;1.33;;;19.10;99.90;;;;;;4982892;28;20061;-82
2022/07/26 00:47:39;;;;;;;3.28;1.33;;;19.10;99.90;;;;;;4980691;28;20506;-81
2022/07/26 00:50:07;;;;;;;4.30;1.33;;;19.10;99.90;;;;;;4982779;28;20046;-81
2022/07/26 00:52:33;;;;;;;6.03;1.67;;;19.10;99.90;;;;;;4986254;28;20062;-82
2022/07/26 00:54:59;;;;;;;5.75;1.92;;;19.10;99.90;;;;;;5002821;28;20049;-81
2022/07/26 00:57:25;;;;;;;7.00;1.70;;;19.00;99.90;;;;;;4984454;28;20049;-81
2022/07/26 00:59:51;;;;;;;7.82;1.95;;;19.00;99.90;;;;;;4980178;28;20096;-80
2022/07/26 01:02:17;;;;;;;5.32;2.38;;;19.00;99.90;;;;;;4982290;28;20049;-81
2022/07/26 01:04:43;;;;;;;5.93;1.92;;;19.00;99.90;;;;;;4979560;28;20230;-80
2022/07/26 01:07:11;;;;;;;4.53;1.52;;;19.00;99.90;;;;;;4986803;28;20066;-80
2022/07/26 01:09:37;;;;;;;6.45;1.95;;;19.00;99.90;;;;;;4994639;28;20057;-82
2022/07/26 01:12:04;;;;;;;4.20;1.70;;;19.00;99.90;;;;;;4980535;28;20164;-82
2022/07/26 01:14:30;;;;;;;4.65;1.73;;;19.00;99.90;;;;;;4971234;28;20475;-80
2022/07/26 01:16:56;;;;;;;6.20;1.90;;;19.00;99.90;;;;;;4995511;28;20060;-80
2022/07/26 01:19:22;;;;;;;5.60;1.55;;;19.00;99.90;;;;;;4995559;28;20525;-80
2022/07/26 01:21:49;;;;;;;3.13;1.20;;;18.90;99.90;;;;;;4968789;28;20046;-81
2022/07/26 01:24:15;;;;;;;5.50;1.40;;;18.80;99.90;;;;;;4996023;28;20495;-82
2022/07/26 01:26:40;;;;;;;4.32;1.50;;;18.70;99.90;;;;;;4964001;28;20117;-81
2022/07/26 01:29:06;;;;;;;5.35;1.50;;;18.70;99.90;;;;;;4985925;28;20049;-81
2022/07/26 01:31:32;;;;;;;5.50;1.50;;;18.60;99.90;;;;;;4972054;28;20089;-79
2022/07/26 01:33:58;;;;;;;4.75;1.40;;;18.60;99.90;;;;;;4969980;28;20100;-81
2022/07/26 01:36:24;;;;;;;6.43;1.83;;;18.60;99.90;;;;;;4979692;28;20128;-81
2022/07/26 01:38:50;;;;;;;8.90;1.85;;;18.60;99.90;;;;;;4979495;28;20484;-81
2022/07/26 01:41:15;;;;;;;5.07;1.58;;;18.60;99.90;;;;;;4964509;28;20499;-80
2022/07/26 01:43:41;;;;;;;6.40;1.92;;;18.50;99.90;;;;;;4982740;28;20084;-81
2022/07/26 01:46:08;;;;;;;3.67;1.30;;;18.50;99.90;;;;;;4982708;28;20048;-81
2022/07/26 01:48:34;;;;;;;7.38;1.52;;;18.50;99.90;;;;;;4980206;28;20722;-81
2022/07/26 01:51:00;;;;;;;5.47;1.70;;;18.50;99.90;;;;;;4996074;28;20105;-81
2022/07/26 01:53:26;;;;;;;7.38;1.55;;;18.40;99.90;;;;;;4984711;28;20077;-81
2022/07/26 01:55:52;;;;;;;2.97;1.20;;;18.40;99.90;;;;;;4978861;28;20188;-80
2022/07/26 01:58:18;;;;;;;3.28;1.23;;;18.40;99.90;;;;;;4973651;28;20781;-80
2022/07/26 02:00:44;;;;;;;3.17;1.00;;;18.30;99.90;;;;;;4981255;28;20045;-81
2022/07/26 02:03:10;;;;;;;5.32;1.38;;;18.30;99.90;;;;;;4981630;28;20050;-80
2022/07/26 02:05:35;;;;;;;7.72;1.50;;;18.30;99.90;;;;;;4967188;28;20042;-81
2022/07/26 02:08:01;;;;;;;7.72;1.25;;;18.30;99.90;;;;;;4998603;28;20476;-82
2022/07/26 02:10:59;;;;;;;6.00;1.58;;;18.30;99.90;;;;;;4999089;28;20097;-81
2022/07/26 02:13:13;;;;;;;4.47;1.20;;;18.20;99.90;;;;;;4997100;28;20061;-80
2022/07/26 02:15:40;;;;;;;6.55;1.40;;;18.20;99.90;;;;;;4993579;28;20046;-81
2022/07/26 02:18:06;;;;;;;4.10;1.42;;;18.20;99.90;;;;;;4963235;28;20063;-82
2022/07/26 02:20:32;;;;;;;6.60;1.30;;;18.20;99.90;;;;;;4983977;28;20038;-81
2022/07/26 02:23:02;;;;;;;5.30;1.70;;;18.20;99.90;;;;;;4978700;28;20557;-80
2022/07/26 02:25:28;;;;;;;4.45;1.48;;;18.10;99.90;;;;;;4984509;28;20047;-81
2022/07/26 02:27:54;;;;;;;6.82;1.63;;;18.00;99.90;;;;;;4980833;28;20038;-81
2022/07/26 02:30:20;;;;;;;5.53;1.30;;;18.00;99.90;;;;;;4993432;28;20489;-80
2022/07/26 02:32:46;;;;;;;6.20;1.50;;;18.00;99.90;;;;;;4979503;28;20054;-80
2022/07/26 02:35:12;;;;;;;6.13;1.55;;;18.00;99.90;;;;;;4983880;28;20050;-80
2022/07/26 02:37:39;;;;;;;4.22;1.10;;;18.00;99.90;;;;;;4975417;28;20125;-80
2022/07/26 02:40:05;;;;;;;5.10;1.52;;;17.90;99.90;;;;;;4984946;28;20041;-80
2022/07/26 02:42:31;;;;;;;4.88;1.20;;;18.00;99.90;;;;;;4988451;28;20050;-81
2022/07/26 02:44:57;;;;;;;4.25;1.23;;;18.00;99.90;;;;;;4968868;28;20399;-80
2022/07/26 02:47:23;;;;;;;4.97;1.30;;;18.00;99.90;;;;;;4980199;28;20057;-81
2022/07/26 02:49:48;;;;;;;2.28;1.05;;;18.00;99.90;;;;;;4963371;28;20060;-81
2022/07/26 02:52:14;;;;;;;4.07;1.10;;;17.90;99.90;;;;;;4959585;28;20058;-80
2022/07/26 02:54:40;;;;;;;5.38;1.20;;;17.90;99.90;;;;;;4964984;28;20049;-80
2022/07/26 02:57:06;;;;;;;4.88;1.42;;;17.90;99.90;;;;;;4999557;28;20537;-80
2022/07/26 02:59:31;;;;;;;5.53;1.27;;;17.90;99.90;;;;;;4987716;28;20050;-81
2022/07/26 03:01:57;;;;;;;7.25;1.75;;;18.00;99.90;;;;;;4973254;28;20056;-81
2022/07/26 03:04:23;;;;;;;5.00;1.10;;;18.00;99.90;;;;;;4969991;28;20085;-81
2022/07/26 03:06:50;;;;;;;5.22;1.10;;;17.90;99.90;;;;;;4963299;28;20069;-81
2022/07/26 03:09:15;;;;;;;6.47;1.20;;;17.90;99.90;;;;;;4968021;28;20061;-82
2022/07/26 03:11:41;;;;;;;5.45;1.48;;;17.90;99.90;;;;;;4981411;28;20046;-81
2022/07/26 03:14:07;;;;;;;6.97;1.80;;;17.90;99.90;;;;;;4994891;28;20303;-81
2022/07/26 03:16:33;;;;;;;7.75;1.40;;;17.90;99.90;;;;;;4976848;28;20060;-80
2022/07/26 03:19:00;;;;;;;7.43;1.30;;;17.90;99.90;;;;;;4993340;28;20107;-81
2022/07/26 03:21:26;;;;;;;4.28;1.30;;;17.90;99.90;;;;;;4975592;28;20068;-81
2022/07/26 03:23:52;;;;;;;6.47;1.70;;;17.90;99.90;;;;;;4979400;28;20049;-81
2022/07/26 03:26:18;;;;;;;4.55;1.40;;;17.90;99.90;;;;;;4959141;28;20113;-81
2022/07/26 03:28:44;;;;;;;4.32;1.15;;;17.90;99.90;;;;;;4983397;28;20128;-80
2022/07/26 03:31:11;;;;;;;7.65;1.45;;;17.90;99.90;;;;;;4959294;28;20091;-80
2022/07/26 03:33:41;;;;;;;7.85;1.40;;;17.90;99.90;;;;;;4979551;28;20074;-80
2022/07/26 03:36:09;;;;;;;3.72;1.30;;;17.80;99.90;;;;;;4981248;28;20526;-80
2022/07/26 03:38:35;;;;;;;3.88;1.30;;;17.80;99.90;;;;;;4962435;28;20085;-80
2022/07/26 03:41:01;;;;;;;5.32;1.20;;;17.80;99.90;;;;;;4977358;28;20428;-80
2022/07/26 03:43:27;;;;;;;5.40;1.17;;;17.70;99.90;;;;;;4976621;28;20046;-80
2022/07/26 03:45:53;;;;;;;4.43;1.55;;;17.70;99.90;;;;;;4978068;28;20054;-81
2022/07/26 03:48:18;;;;;;;6.88;1.77;;;17.60;99.90;;;;;;4952483;28;20046;-80
2022/07/26 03:50:44;;;;;;;3.67;1.33;;;17.60;99.90;;;;;;4969672;28;20061;-81
2022/07/26 03:53:10;;;;;;;3.92;1.13;;;17.50;99.90;;;;;;4995631;28;20821;-80
2022/07/26 03:58:19;;;;;;;4.15;1.00;;;17.40;99.90;;;;;;4979035;28;20057;-81
2022/07/26 04:00:46;;;;;;;5.90;1.70;;;17.40;99.90;;;;;;4962036;28;20109;-82
2022/07/26 04:03:11;;;;;;;5.20;1.38;;;17.40;99.90;;;;;;4965554;28;20053;-82
2022/07/26 04:05:37;;;;;;;4.20;1.00;;;17.40;99.90;;;;;;4965489;28;20050;-82
2022/07/26 04:08:03;;;;;;;4.53;1.02;;;17.40;99.90;;;;;;4964899;28;20503;-82
2022/07/26 04:10:29;;;;;;;4.03;1.00;;;17.40;99.90;;;;;;4979160;28;20076;-81
2022/07/26 04:12:55;;;;;;;9.63;1.60;;;17.40;99.90;;;;;;4975912;28;20053;-81
2022/07/26 04:15:21;;;;;;;5.38;1.45;;;17.40;99.90;;;;;;4968604;28;20050;-81
2022/07/26 04:17:47;;;;;;;4.00;1.17;;;17.40;99.90;;;;;;4966144;28;20053;-82
2022/07/26 04:20:13;;;;;;;3.90;1.10;;;17.40;99.90;;;;;;4998831;28;20125;-81
2022/07/26 04:22:40;;;;;;;5.35;1.00;;;17.40;99.90;;;;;;4986076;28;20140;-82
2022/07/26 04:25:07;;;;;;;6.03;1.35;;;17.40;99.90;;;;;;4982843;28;20049;-82
2022/07/26 04:27:35;;;;;;;5.90;1.05;;;17.40;99.90;;;;;;4983772;28;20050;-81
2022/07/26 04:30:01;;;;;;;4.70;1.40;;;17.40;99.90;;;;;;4982549;28;21809;-82
2022/07/26 04:32:26;;;;;;;4.55;1.15;;;17.40;99.90;;;;;;4979528;28;20140;-82
2022/07/26 04:34:52;;;;;;;5.10;1.80;;;17.40;99.90;;;;;;4967986;28;20140;-81
2022/07/26 04:37:18;;;;;;;2.03;0.90;;;17.40;99.90;;;;;;4963896;28;20066;-82
2022/07/26 04:39:49;;;;;;;2.95;0.70;;;17.30;99.90;;;;;;4981622;28;20057;-82
2022/07/26 04:42:15;;;;;;;3.95;1.30;;;17.30;99.90;;;;;;4995361;28;20396;-82
2022/07/26 04:44:41;;;;;;;1.63;0.80;;;17.30;99.90;;;;;;4954786;28;20133;-81
2022/07/26 04:47:06;;;;;;;3.75;1.10;;;17.30;99.90;;;;;;4979666;28;20054;-81
2022/07/26 04:49:32;;;;;;;4.60;0.95;;;17.30;99.90;;;;;;4972322;28;20491;-81
2022/07/26 04:51:58;;;;;;;2.35;0.70;;;17.20;99.90;;;;;;4979945;28;20140;-82
2022/07/26 04:54:24;;;;;;;3.17;0.65;;;17.30;99.90;;;;;;4985021;28;20047;-81
2022/07/26 04:56:49;;;;;;;3.72;1.02;;;17.30;99.90;;;;;;4998029;28;20573;-81
2022/07/26 04:59:16;;;;;;;3.35;0.77;;;17.30;99.90;;;;;;4954547;28;20089;-80
2022/07/26 05:01:42;;;;;;;3.60;0.80;;;17.40;99.90;;;;;;4984684;28;20046;-80
2022/07/26 05:04:08;;;;;;;5.82;1.00;;;17.40;99.90;;;;;;4988109;28;20058;-81
2022/07/26 05:06:34;;;;;;;3.42;0.90;;;17.40;99.90;;;;;;4998613;28;20050;-81
2022/07/26 05:09:00;;;;;;;3.47;0.77;;;17.40;99.90;;;;;;4965623;28;20475;-79
2022/07/26 05:11:26;;;;;;;3.45;0.95;;;17.40;99.90;;;;;;5007094;28;20058;-79
2022/07/26 05:13:51;;;;;;;3.88;1.15;;;17.50;99.90;;;;;;4969559;28;20042;-79
2022/07/26 05:16:17;;;;;;;4.25;1.20;;;17.40;99.90;;;;;;4960741;28;20042;-80
2022/07/26 05:18:43;;;;;;;3.72;0.93;;;17.40;99.90;;;;;;4979045;28;20107;-79
2022/07/26 05:21:09;;;;;;;4.22;0.90;;;17.40;99.90;;;;;;4967217;28;20052;-81
2022/07/26 05:23:35;;;;;;;5.63;1.02;;;17.30;99.90;;;;;;4967019;28;20077;-80
2022/07/26 05:26:00;;;;;;;2.10;0.70;;;17.20;99.90;;;;;;4977934;28;20120;-81
2022/07/26 05:28:26;;;;;;;4.18;1.05;;;17.20;99.90;;;;;;4993802;28;20806;-79
2022/07/26 05:30:52;;;;;;;3.47;0.90;;;17.10;99.90;;;;;;4964653;28;20625;-79
2022/07/26 05:33:17;;;;;;;3.25;0.93;;;17.30;99.90;;;;;;4979714;28;20046;-81
2022/07/26 05:35:43;;;;;;;3.60;1.00;;;17.30;99.90;;;;;;4967315;28;20042;-79
2022/07/26 05:38:09;;;;;;;3.53;1.02;;;17.40;99.90;;;;;;4970709;28;20049;-79
2022/07/26 05:40:35;;;;;;;3.33;0.90;;;17.40;99.90;;;;;;4972323;28;20049;-79
2022/07/26 05:43:01;;;;;;;3.13;0.73;;;17.40;99.90;;;;;;4985554;28;20119;-81
2022/07/26 05:45:27;;;;;;;5.60;1.38;;;17.50;99.90;;;;;;4982168;28;20123;-80
2022/07/26 05:47:54;;;;;;;5.05;0.80;;;17.50;99.90;;;;;;4979908;28;20798;-79
2022/07/26 05:50:20;;;;;;;3.35;1.05;;;17.60;99.90;;;;;;4996866;28;20041;-79
2022/07/26 05:52:46;;;;;;;5.57;1.23;;;17.60;99.90;;;;;;5002979;28;20041;-80
2022/07/26 05:55:11;;;;;;;3.20;0.90;;;17.60;99.90;;;;;;4979623;28;20055;-80
2022/07/26 05:57:41;;;;;;;3.75;0.77;;;17.70;99.90;;;;;;4996578;28;20073;-80
2022/07/26 06:00:08;;;;;;;6.22;1.10;;;17.70;99.90;;;;;;4984518;28;20046;-78
2022/07/26 06:02:34;;;;;;;4.53;1.00;;;17.80;99.90;;;;;;4984411;28;20149;-81
2022/07/26 06:05:00;;;;;;;3.03;0.90;;;17.80;99.90;;;;;;4983389;28;20049;-84
2022/07/26 06:07:26;;;;;;;4.22;1.00;;;17.80;99.90;;;;;;4984828;28;20057;-79
2022/07/26 06:09:51;;;;;;;3.08;0.80;;;17.80;99.90;;;;;;4980434;28;20042;-79
2022/07/26 06:12:17;;;;;;;4.30;1.20;;;17.90;99.90;;;;;;4955762;28;20060;-78
2022/07/26 06:14:43;;;;;;;5.47;1.13;;;17.80;99.90;;;;;;4967305;28;20062;-82
2022/07/26 06:17:09;;;;;;;5.38;1.35;;;17.30;99.90;;;;;;4982520;28;20503;-80
2022/07/26 06:19:35;;;;;;;5.95;1.10;;;17.70;99.90;;;;;;4973412;28;20079;-80
2022/07/26 06:22:01;;;;;;;4.65;1.48;;;17.50;99.90;;;;;;4959684;28;21278;-79
2022/07/26 06:24:27;;;;;;;7.47;1.48;;;17.40;99.90;;;;;;4965206;28;20168;-82
2022/07/26 06:26:54;;;;;;;3.78;1.25;;;17.40;99.90;;;;;;4959812;28;20551;-80
2022/07/26 06:29:20;;;;;;;4.78;1.30;;;17.30;99.90;;;;;;4978003;28;20103;-79
2022/07/26 06:31:46;;;;;;;5.30;1.13;;;17.30;99.90;;;;;;4976167;28;20084;-79
2022/07/26 06:34:12;;;;;;;5.03;0.90;;;17.30;99.90;;;;;;4985737;28;20042;-81
2022/07/26 06:36:38;;;;;;;3.60;0.77;;;17.30;99.90;;;;;;4981072;28;20061;-80
2022/07/26 06:39:03;;;;;;;4.72;0.98;;;17.30;99.90;;;;;;4992309;28;20714;-80
2022/07/26 06:41:29;;;;;;;4.22;1.30;;;17.30;99.90;;;;;;4975530;28;20085;-79
2022/07/26 06:43:55;;;;;;;6.20;0.93;;;17.30;99.90;;;;;;4974905;28;20053;-79
2022/07/26 06:46:21;;;;;;;4.15;1.13;;;17.30;99.90;;;;;;4963567;28;20133;-80
2022/07/26 06:48:47;;;;;;;6.03;1.10;;;17.40;99.90;;;;;;4994538;28;20573;-80
2022/07/26 06:51:13;;;;;;;2.75;0.90;;;17.40;99.90;;;;;;4979050;28;20054;-79
2022/07/26 06:53:39;;;;;;;4.78;1.00;;;17.50;99.90;;;;;;4971089;28;20960;-79
2022/07/26 06:56:05;;;;;;;4.65;1.33;;;17.50;99.90;;;;;;4961118;28;20050;-81
2022/07/26 06:58:31;;;;;;;4.28;1.05;;;17.60;99.90;;;;;;4994856;28;20048;-79
2022/07/26 07:00:57;;;;;;;4.30;1.10;;;17.60;99.90;;;;;;4951747;28;20042;-79
2022/07/26 07:03:22;;;;;;;5.32;1.10;;;17.70;99.90;;;;;;4976064;28;20038;-81
2022/07/26 07:05:48;;;;;;;3.90;1.10;;;17.70;99.90;;;;;;4968344;28;20064;-81
2022/07/26 07:08:14;;;;;;;5.32;1.35;;;17.80;99.90;;;;;;4978832;28;20051;-81
2022/07/26 07:10:40;;;;;;;4.57;1.38;;;17.90;99.90;;;;;;4984652;28;20038;-81
2022/07/26 07:13:06;;;;;;;7.28;1.75;;;17.90;99.90;;;;;;4985358;28;20053;-83
2022/07/26 07:15:32;;;;;;;6.50;1.45;;;18.00;99.90;;;;;;4963386;28;20053;-81
2022/07/26 07:17:57;;;;;;;4.65;1.30;;;18.10;99.90;;;;;;4981730;28;20057;-81
2022/07/26 07:20:23;;;;;;;4.32;0.93;;;18.20;99.90;;;;;;4969357;28;20038;-81
2022/07/26 07:22:49;;;;;;;5.72;1.42;;;18.40;99.90;;;;;;4983378;28;20046;-79
2022/07/26 07:25:15;;;;;;;5.85;1.38;;;18.60;99.90;;;;;;4961990;28;20407;-81
2022/07/26 07:27:41;;;;;;;10.35;1.52;;;18.40;99.90;;;;;;4980075;28;20044;-80
2022/07/26 07:30:09;;;;;;;5.38;1.42;;;18.80;99.90;;;;;;4998631;28;20146;-82
2022/07/26 07:32:35;;;;;;;5.78;1.55;;;18.80;99.90;;;;;;5000174;28;20050;-81
2022/07/26 07:35:01;;;;;;;5.63;1.50;;;18.80;99.90;;;;;;4971071;28;20049;-82
2022/07/26 07:37:27;;;;;;;6.28;1.50;;;18.80;99.90;;;;;;4980905;28;20137;-83
2022/07/26 07:39:53;;;;;;;7.93;1.90;;;18.70;99.90;;;;;;4992437;28;20056;-83
2022/07/26 07:42:19;;;;;;;6.28;2.03;;;18.70;99.90;;;;;;4967628;28;20050;-81
2022/07/26 07:44:45;;;;;;;6.68;1.85;;;18.70;99.90;;;;;;4990261;28;20072;-81
2022/07/26 07:47:11;;;;;;;7.63;1.70;;;18.60;99.90;;;;;;4990315;28;20050;-81
2022/07/26 07:49:37;;;;;;;6.43;2.00;;;18.70;99.90;;;;;;4976027;28;20050;-80
2022/07/26 07:52:04;;;;;;;6.38;1.60;;;18.80;99.90;;;;;;5002164;28;20077;-80
2022/07/26 07:54:29;;;;;;;5.68;1.55;;;18.80;99.90;;;;;;4985183;28;20348;-82
2022/07/26 07:56:55;;;;;;;7.43;1.85;;;18.70;99.90;;;;;;4984537;28;20120;-82
2022/07/26 07:59:22;;;;;;;6.18;1.45;;;18.80;99.90;;;;;;4965720;28;20042;-81
2022/07/26 08:01:48;;;;;;;5.60;1.85;;;18.80;99.90;;;;;;4975173;28;20060;-80
2022/07/26 08:04:14;;;;;;;9.25;2.17;;;18.90;99.90;;;;;;4981449;28;20058;-81
2022/07/26 08:06:40;;;;;;;4.80;1.50;;;18.90;99.90;;;;;;4975251;28;20132;-81
2022/07/26 08:09:06;;;;;;;7.47;1.77;;;19.00;99.90;;;;;;4984215;28;20068;-82
2022/07/26 08:11:32;;;;;;;5.40;1.52;;;19.10;99.90;;;;;;4985583;28;20050;-81
2022/07/26 08:13:58;;;;;;;10.38;1.70;;;19.20;99.90;;;;;;4986290;28;20364;-80
2022/07/26 08:16:24;;;;;;;8.43;2.03;;;19.30;99.90;;;;;;4967759;28;20052;-81
2022/07/26 08:18:49;;;;;;;7.75;2.22;;;19.30;99.90;;;;;;4982146;28;20050;-83
2022/07/26 08:21:15;;;;;;;8.77;1.77;;;19.30;99.90;;;;;;4984857;28;20038;-81
2022/07/26 08:23:41;;;;;;;8.68;1.98;;;19.20;99.90;;;;;;4973769;28;20100;-80
2022/07/26 08:26:07;;;;;;;8.80;2.15;;;19.10;99.90;;;;;;4986433;28;20042;-81
2022/07/26 08:28:33;;;;;;;8.73;1.75;;;19.10;99.90;;;;;;4958303;28;20050;-81
2022/07/26 08:30:59;;;;;;;7.82;1.70;;;19.00;99.90;;;;;;4974859;28;20136;-81
2022/07/26 08:33:24;;;;;;;7.53;1.70;;;19.00;99.90;;;;;;4971612;28;20056;-82
2022/07/26 08:35:50;;;;;;;6.18;1.40;;;19.00;99.90;;;;;;4998250;28;20072;-80
2022/07/26 08:38:16;;;;;;;6.88;1.70;;;19.10;99.90;;;;;;4994756;28;20507;-82
2022/07/26 08:40:42;;;;;;;5.93;1.42;;;19.10;99.90;;;;;;4991050;28;20143;-83
2022/07/26 08:43:09;;;;;;;7.80;1.30;;;18.80;99.90;;;;;;4976742;28;20060;-81
2022/07/26 08:45:36;;;;;;;13.35;2.13;;;19.20;99.90;;;;;;4987326;28;20046;-83
2022/07/26 08:48:02;;;;;;;9.00;2.28;;;19.20;99.90;;;;;;5003436;28;20049;-81
2022/07/26 08:50:28;;;;;;;8.43;1.80;;;19.10;99.90;;;;;;4973391;28;21587;-82
2022/07/26 08:52:59;;;;;;;8.98;1.85;;;19.20;99.90;;;;;;4989196;28;20505;-80
2022/07/26 08:55:25;;;;;;;8.88;1.83;;;19.20;99.90;;;;;;5001889;28;20056;-81
2022/07/26 08:57:51;;;;;;;5.95;1.40;;;19.10;99.90;;;;;;4987476;28;20057;-82
2022/07/26 09:00:28;;;;;;;7.25;1.60;;;19.10;99.90;;;;;;5001697;28;20068;-83
2022/07/26 09:02:55;;;;;;;4.78;1.75;;;19.00;99.90;;;;;;4988185;28;20077;-82
2022/07/26 09:05:32;;;;;;;6.40;1.75;;;19.00;99.90;;;;;;4991970;28;20049;-80
2022/07/26 09:07:59;;;;;;;4.85;1.50;;;19.10;99.90;;;;;;5001623;28;20129;-82
2022/07/26 09:10:26;;;;;;;4.68;1.58;;;19.30;99.90;;;;;;4986658;28;20119;-79
2022/07/26 09:12:54;;;;;;;8.93;1.60;;;19.40;99.90;;;;;;4974542;28;20095;-80
2022/07/26 09:15:26;;;;;;;9.30;1.90;;;19.60;99.90;;;;;;4986042;28;20414;-81
2022/07/26 09:17:54;;;;;;;6.82;1.65;;;19.80;99.90;;;;;;4990146;28;20045;-81
2022/07/26 09:20:24;;;;;;;4.88;1.50;;;19.90;99.90;;;;;;4988296;28;20117;-82
2022/07/26 09:23:00;;;;;;;5.10;1.40;;;20.10;99.90;;;;;;4998561;28;20049;-80
2022/07/26 09:25:28;;;;;;;6.18;1.58;;;20.30;99.90;;;;;;4995675;28;20056;-81
2022/07/26 09:27:54;;;;;;;5.38;1.80;;;20.40;99.90;;;;;;4990572;28;20531;-81
2022/07/26 09:30:20;;;;;;;6.00;1.38;;;20.50;99.90;;;;;;4971173;28;20056;-81
2022/07/26 09:33:04;;;;;;;7.80;2.20;;;20.00;99.90;;;;;;4968299;28;20081;-80
2022/07/26 09:35:37;;;;;;;6.13;1.58;;;20.90;99.90;;;;;;5001343;28;20057;-81
2022/07/26 09:38:13;;;;;;;5.32;1.77;;;21.00;99.90;;;;;;4991804;28;20053;-81
2022/07/26 09:40:39;;;;;;;6.25;1.20;;;21.00;99.90;;;;;;5006455;28;20041;-82
2022/07/26 09:43:06;;;;;;;11.00;1.75;;;21.00;99.90;;;;;;4978691;28;20115;-80
2022/07/26 09:45:35;;;;;;;4.32;1.25;;;21.10;99.90;;;;;;4977352;28;20049;-81
2022/07/26 09:48:02;;;;;;;5.50;1.55;;;21.10;99.90;;;;;;5008272;28;20064;-82
2022/07/26 09:50:30;;;;;;;5.60;1.30;;;21.20;99.90;;;;;;5008008;28;20180;-81
2022/07/26 09:53:02;;;;;;;4.22;1.65;;;21.30;99.90;;;;;;4990624;28;20057;-81
2022/07/26 09:55:30;;;;;;;6.60;1.50;;;21.90;99.90;;;;;;5003195;28;20049;-83
2022/07/26 09:57:56;;;;;;;5.45;1.40;;;22.40;99.90;;;;;;4992591;28;20041;-82
2022/07/26 10:00:24;;;;;;;5.70;1.50;;;22.90;99.90;;;;;;5006954;28;20050;-80
2022/07/26 10:02:53;;;;;;;4.40;1.33;;;23.30;99.40;;;;;;4990395;28;20052;-81
2022/07/26 10:05:20;;;;;;;5.13;1.33;;;23.40;98.50;;;;;;5017362;28;20108;-81
2022/07/26 10:07:48;;;;;;;4.60;1.38;;;23.70;97.90;;;;;;5000699;28;20059;-82
2022/07/26 10:10:37;;;;;;;5.72;1.33;;;24.00;97.40;;;;;;5006732;28;20076;-80
2022/07/26 10:13:05;;;;;;;4.97;1.20;;;24.20;96.80;;;;;;4986270;28;20064;-81
2022/07/26 10:15:42;;;;;;;5.82;1.33;;;24.20;96.10;;;;;;4994094;28;20042;-81
2022/07/26 10:18:10;;;;;;;4.40;1.23;;;24.20;95.30;;;;;;4987907;28;20143;-81
2022/07/26 10:20:48;;;;;;;5.63;1.30;;;24.30;94.90;;;;;;5000808;28;20053;-81
2022/07/26 10:23:37;;;;;;;5.75;1.85;;;24.20;92.70;;;;;;5022365;28;20052;-81
2022/07/26 10:26:06;;;;;;;4.43;1.00;;;24.20;92.30;;;;;;4988168;28;20133;-80
2022/07/26 10:28:35;;;;;;;6.53;1.30;;;24.20;93.30;;;;;;5002160;28;20631;-80
2022/07/26 10:31:19;;;;;;;6.72;1.27;;;24.40;93.50;;;;;;4994372;28;20037;-81
2022/07/26 10:33:48;;;;;;;3.53;1.10;;;24.60;90.80;;;;;;5003177;28;20132;-79
2022/07/26 10:36:31;;;;;;;3.90;1.20;;;24.60;92.20;;;;;;5001217;28;20100;-80
2022/07/26 10:39:21;;;;;;;3.00;1.10;;;24.50;91.30;;;;;;5002526;28;20054;-80
2022/07/26 10:42:00;;;;;;;3.83;0.90;;;25.00;90.80;;;;;;5001197;28;20045;-80
2022/07/26 10:44:29;;;;;;;2.47;1.00;;;24.90;90.90;;;;;;5001927;28;20054;-81
2022/07/26 10:47:00;;;;;;;3.92;1.38;;;24.80;90.80;;;;;;4969198;28;20045;-80
2022/07/26 10:49:35;;;;;;;3.97;1.20;;;25.00;90.70;;;;;;4991331;28;20061;-81
2022/07/26 10:52:07;;;;;;;4.65;1.60;;;25.50;91.10;;;;;;4994191;28;20083;-81
2022/07/26 10:54:58;;;;;;;3.65;1.00;;;25.80;90.60;;;;;;5003898;28;20075;-82
2022/07/26 10:57:32;;;;;;;4.22;1.30;;;25.90;87.10;;;;;;4986919;28;20046;-81
2022/07/26 10:59:59;;;;;;;4.18;1.30;;;25.90;88.50;;;;;;5002812;28;20528;-82
2022/07/26 11:02:31;;;;;;;3.67;1.23;;;25.80;88.40;;;;;;4977996;28;20049;-82
2022/07/26 11:05:03;;;;;;;4.00;1.13;;;26.10;89.00;;;;;;4991759;28;20624;-81
2022/07/26 11:07:30;;;;;;;4.15;1.00;;;26.30;87.50;;;;;;4983328;28;20053;-81
2022/07/26 11:09:58;;;;;;;7.63;1.40;;;26.40;86.90;;;;;;4990732;28;20398;-83
2022/07/26 11:12:27;;;;;;;3.78;1.08;;;26.20;85.80;;;;;;4990923;28;20053;-82
2022/07/26 11:14:53;;;;;;;3.28;1.40;;;26.00;85.10;;;;;;4974918;28;20050;-81
2022/07/26 11:17:29;;;;;;;6.47;1.40;;;26.00;86.10;;;;;;4983551;28;20529;-81
2022/07/26 11:19:56;;;;;;;3.80;1.10;;;26.00;81.60;;;;;;4993900;28;20050;-81
2022/07/26 11:22:31;;;;;;;3.40;1.20;;;26.10;85.30;;;;;;5004420;28;20049;-81
2022/07/26 11:24:57;;;;;;;3.42;1.25;;;26.40;83.40;;;;;;5002910;28;20049;-81
2022/07/26 11:27:23;;;;;;;5.85;1.20;;;26.60;83.50;;;;;;4994144;28;20543;-80
2022/07/26 11:29:48;;;;;;;2.25;0.90;;;26.50;82.20;;;;;;5010750;28;20096;-79
2022/07/26 11:32:20;;;;;;;5.30;0.90;;;26.60;81.20;;;;;;4990958;28;20372;-80
2022/07/26 11:34:46;;;;;;;5.63;1.15;;;26.60;78.30;;;;;;5021458;28;20116;-78
2022/07/26 11:37:13;;;;;;;2.10;0.73;;;26.50;79.80;;;;;;4984919;28;20065;-79
2022/07/26 11:39:39;;;;;;;5.13;1.17;;;26.80;79.40;;;;;;4991456;28;20085;-78
2022/07/26 11:42:10;;;;;;;3.50;1.08;;;26.80;78.40;;;;;;4970797;28;20084;-78
2022/07/26 11:44:36;;;;;;;3.58;1.20;;;26.70;75.90;;;;;;4976965;28;20391;-78
2022/07/26 11:47:18;;;;;;;4.25;1.02;;;27.00;77.40;;;;;;4977089;28;20128;-79
2022/07/26 11:49:45;;;;;;;5.25;1.10;;;26.60;71.10;;;;;;5001719;28;20100;-78
2022/07/26 11:52:11;;;;;;;3.65;0.95;;;26.40;74.40;;;;;;4986088;28;20075;-79
2022/07/26 11:54:49;;;;;;;6.63;1.33;;;25.90;74.60;;;;;;4985737;28;20049;-78
2022/07/26 11:57:16;;;;;;;4.55;0.98;;;25.70;73.90;;;;;;5008787;28;20056;-80
2022/07/26 11:59:44;;;;;;;2.72;1.00;;;25.60;76.20;;;;;;5000695;28;20586;-79
2022/07/26 12:02:12;;;;;;;2.65;1.00;;;25.60;76.20;;;;;;4983705;28;20049;-79
2022/07/26 12:04:42;;;;;;;2.90;1.00;;;25.80;76.00;;;;;;4988284;28;20123;-80
2022/07/26 12:07:17;;;;;;;4.45;1.10;;;26.10;76.20;;;;;;4988306;28;20575;-80
2022/07/26 12:09:47;;;;;;;5.60;1.00;;;26.30;74.50;;;;;;4997008;28;20506;-80
2022/07/26 12:12:26;;;;;;;4.28;0.80;;;26.20;73.80;;;;;;4984951;28;20053;-80
2022/07/26 12:15:06;;;;;;;4.25;0.93;;;26.30;73.00;;;;;;5020101;28;20045;-80
2022/07/26 12:17:33;;;;;;;5.15;1.33;;;26.40;71.60;;;;;;4986534;28;20057;-82
2022/07/26 12:20:13;;;;;;;2.53;0.95;;;26.40;72.10;;;;;;5000524;28;20057;-82
2022/07/26 12:22:39;;;;;;;2.40;0.63;;;26.50;71.50;;;;;;4985091;28;20049;-81
2022/07/26 12:25:08;;;;;;;2.33;0.70;;;26.40;71.60;;;;;;4986657;28;20054;-80
2022/07/26 12:27:47;;;;;;;3.28;0.90;;;26.50;71.30;;;;;;4975437;28;20060;-81
2022/07/26 12:30:14;;;;;;;1.80;0.65;;;26.50;69.30;;;;;;5002508;28;20049;-79
2022/07/26 12:32:42;;;;;;;2.38;0.73;;;26.70;70.70;;;;;;4983170;28;20551;-80
2022/07/26 12:35:14;;;;;;;4.90;0.90;;;26.50;69.20;;;;;;4982661;28;20443;-79
2022/07/26 12:37:46;;;;;;;2.22;0.85;;;26.30;68.70;;;;;;4998410;28;20057;-79
2022/07/26 12:40:17;;;;;;;2.55;0.80;;;26.30;68.20;;;;;;4985369;28;20570;-80
2022/07/26 12:42:59;;;;;;;3.78;1.27;;;26.30;67.70;;;;;;5000084;28;20372;-80
2022/07/26 12:45:27;;;;;;;2.97;0.60;;;25.80;68.30;;;;;;5005075;28;20049;-81
2022/07/26 12:47:55;;;;;;;2.25;0.90;;;25.80;68.80;;;;;;4999942;28;20045;-82
2022/07/26 12:50:23;;;;;;;2.95;0.85;;;26.00;69.30;;;;;;4987031;28;20271;-81